createdAt,value
2023-02-22T00:01:08.237Z,66.12
2023-02-22T00:03:36.432Z,66.25
2023-02-22T00:06:06.515Z,66.24
2023-02-22T00:08:37.295Z,66.37
2023-02-22T00:11:09.168Z,66.42
2023-02-22T00:13:38.631Z,66.52
2023-02-22T00:16:07.264Z,66.37
2023-02-22T00:18:35.471Z,66.40
2023-02-22T00:21:03.797Z,66.57
2023-02-22T00:23:32.163Z,66.56
2023-02-22T00:26:01.215Z,66.65
2023-02-22T00:28:30.761Z,66.76
2023-02-22T00:30:59.952Z,66.71
2023-02-22T00:33:28.573Z,66.76
2023-02-22T00:35:56.725Z,66.71
2023-02-22T00:38:25.419Z,66.89
2023-02-22T00:40:53.621Z,66.87
2023-02-22T00:43:21.807Z,67.00
2023-02-22T00:45:50.001Z,67.05
2023-02-22T00:48:19.601Z,67.16
2023-02-22T00:50:48.804Z,67.45
2023-02-22T00:53:17.010Z,67.51
2023-02-22T00:55:45.144Z,67.64
2023-02-22T00:58:13.261Z,67.70
2023-02-22T01:00:42.929Z,67.83
2023-02-22T01:03:16.465Z,67.87
2023-02-22T01:05:45.254Z,67.83
2023-02-22T01:08:16.306Z,67.91
2023-02-22T01:10:45.250Z,68.10
2023-02-22T01:13:13.871Z,68.12
2023-02-22T01:15:44.942Z,68.30
2023-02-22T01:18:13.469Z,68.49
2023-02-22T01:20:41.586Z,68.54
2023-02-22T01:23:10.705Z,68.30
2023-02-22T01:25:38.887Z,68.68
2023-02-22T01:28:08.168Z,68.84
2023-02-22T01:30:37.354Z,68.66
2023-02-22T01:33:07.854Z,68.79
2023-02-22T01:35:40.852Z,69.03
2023-02-22T01:38:11.961Z,69.03
2023-02-22T01:40:43.847Z,69.13
2023-02-22T01:43:31.696Z,69.27
2023-02-22T01:46:02.553Z,69.17
2023-02-22T01:48:50.812Z,69.29
2023-02-22T01:51:28.249Z,69.36
2023-02-22T01:54:20.196Z,69.57
2023-02-22T01:57:12.738Z,69.49
2023-02-22T01:59:46.540Z,69.70
2023-02-22T02:02:15.162Z,69.89
2023-02-22T02:04:43.418Z,70.07
2023-02-22T02:07:14.855Z,70.29
2023-02-22T02:09:57.678Z,70.19
2023-02-22T02:12:30.045Z,70.37
2023-02-22T02:15:25.484Z,70.32
2023-02-22T02:17:56.770Z,70.23
2023-02-22T02:20:40.211Z,70.57
2023-02-22T02:23:35.654Z,70.56
2023-02-22T02:26:17.847Z,70.37
2023-02-22T02:29:30.388Z,70.45
2023-02-22T02:32:34.677Z,70.40
2023-02-22T02:35:26.523Z,70.89
2023-02-22T02:38:01.612Z,70.84
2023-02-22T02:40:41.443Z,70.81
2023-02-22T02:43:26.492Z,70.76
2023-02-22T02:45:56.676Z,70.68
2023-02-22T02:48:29.002Z,70.65
2023-02-22T02:51:01.232Z,70.63
2023-02-22T02:53:38.750Z,70.59
2023-02-22T02:56:07.694Z,70.55
2023-02-22T02:58:53.148Z,70.50
2023-02-22T03:01:54.795Z,70.40
2023-02-22T03:05:02.320Z,70.44
2023-02-22T03:08:07.834Z,70.42
2023-02-22T03:11:15.135Z,70.53
2023-02-22T03:14:33.393Z,70.46
2023-02-22T03:18:00.517Z,70.30
2023-02-22T03:20:43.256Z,70.29
2023-02-22T03:23:32.923Z,70.23
2023-02-22T03:26:24.173Z,70.11
2023-02-22T03:28:56.101Z,70.31
2023-02-22T03:31:31.546Z,70.14
2023-02-22T03:34:19.495Z,70.31
2023-02-22T03:37:08.345Z,70.29
2023-02-22T03:39:38.482Z,70.29
2023-02-22T03:42:13.934Z,70.29
2023-02-22T03:44:45.900Z,70.29
2023-02-22T03:47:23.016Z,70.34
2023-02-22T03:50:06.970Z,70.37
2023-02-22T03:52:36.248Z,70.54
2023-02-22T03:55:11.199Z,70.58
2023-02-22T03:57:46.703Z,70.53
2023-02-22T04:00:22.823Z,70.54
2023-02-22T04:02:51.928Z,70.43
2023-02-22T04:05:21.492Z,70.55
2023-02-22T04:07:49.623Z,70.35
2023-02-22T04:10:17.918Z,70.37
2023-02-22T04:12:46.124Z,70.57
2023-02-22T04:15:20.027Z,70.47
2023-02-22T04:17:52.258Z,70.51
2023-02-22T04:20:20.657Z,70.58
2023-02-22T04:22:55.966Z,70.64
2023-02-22T04:25:24.703Z,70.71
2023-02-22T04:27:53.906Z,70.68
2023-02-22T04:30:47.847Z,70.68
2023-02-22T04:33:18.118Z,70.76
2023-02-22T04:35:47.628Z,70.65
2023-02-22T04:38:15.817Z,70.91
2023-02-22T04:40:43.952Z,70.95
2023-02-22T04:43:12.151Z,70.94
2023-02-22T04:45:41.371Z,71.06
2023-02-22T04:48:10.251Z,71.12
2023-02-22T04:50:40.590Z,71.20
2023-02-22T04:53:09.314Z,71.22
2023-02-22T04:55:40.894Z,71.37
2023-02-22T04:58:09.655Z,71.55
2023-02-22T05:00:40.122Z,71.80
2023-02-22T05:03:08.955Z,71.79
2023-02-22T05:05:37.384Z,71.75
2023-02-22T05:08:05.651Z,71.87
2023-02-22T05:10:34.165Z,71.72
2023-02-22T05:13:04.199Z,71.73
2023-02-22T05:15:32.677Z,71.71
2023-02-22T05:18:00.857Z,71.81
2023-02-22T05:20:33.462Z,71.86
2023-02-22T05:23:02.976Z,71.59
2023-02-22T05:25:31.690Z,71.46
2023-02-22T05:28:08.066Z,71.54
2023-02-22T05:30:39.670Z,71.64
2023-02-22T05:33:09.419Z,71.69
2023-02-22T05:35:37.593Z,71.73
2023-02-22T05:38:06.560Z,71.61
2023-02-22T05:40:35.269Z,71.91
2023-02-22T05:43:03.696Z,71.73
2023-02-22T05:45:31.833Z,71.55
2023-02-22T05:47:59.972Z,71.59
2023-02-22T05:50:28.797Z,71.48
2023-02-22T05:52:56.962Z,71.54
2023-02-22T05:55:25.222Z,71.46
2023-02-22T05:57:54.016Z,71.38
2023-02-22T06:00:30.042Z,71.26
2023-02-22T06:03:05.550Z,71.12
2023-02-22T06:05:34.308Z,71.08
2023-02-22T06:08:04.407Z,70.96
2023-02-22T06:10:33.165Z,70.69
2023-02-22T06:13:03.871Z,70.56
2023-02-22T06:15:32.285Z,70.25
2023-02-22T06:18:01.542Z,70.18
2023-02-22T06:20:31.151Z,70.13
2023-02-22T06:22:59.317Z,69.94
2023-02-22T06:25:31.540Z,69.87
2023-02-22T06:28:01.514Z,69.68
2023-02-22T06:30:30.842Z,69.47
2023-02-22T06:32:59.070Z,69.29
2023-02-22T06:35:27.273Z,68.99
2023-02-22T06:37:55.447Z,68.57
2023-02-22T06:40:23.693Z,68.55
2023-02-22T06:42:51.805Z,68.31
2023-02-22T06:45:20.263Z,67.85
2023-02-22T06:47:49.813Z,67.46
2023-02-22T06:50:31.727Z,67.44
2023-02-22T06:53:00.591Z,67.24
2023-02-22T06:55:31.821Z,67.13
2023-02-22T06:58:01.598Z,66.83
2023-02-22T07:00:32.259Z,66.48
2023-02-22T07:03:03.961Z,66.28
2023-02-22T07:05:32.342Z,65.77
2023-02-22T07:08:06.807Z,64.93
2023-02-22T07:10:36.906Z,64.97
2023-02-22T07:13:07.895Z,64.65
2023-02-22T07:15:36.504Z,63.48
2023-02-22T07:18:04.958Z,63.20
2023-02-22T07:20:34.163Z,63.36
2023-02-22T07:23:02.659Z,62.79
2023-02-22T07:25:31.020Z,62.75
2023-02-22T07:27:59.732Z,62.51
2023-02-22T07:30:32.329Z,62.86
2023-02-22T07:33:07.388Z,62.77
2023-02-22T07:35:39.138Z,62.56
2023-02-22T07:38:08.435Z,62.00
2023-02-22T07:40:38.396Z,61.43
2023-02-22T07:43:16.998Z,61.12
2023-02-22T07:45:46.551Z,60.95
2023-02-22T07:48:17.602Z,60.78
2023-02-22T07:50:46.288Z,60.43
2023-02-22T07:53:26.737Z,59.83
2023-02-22T07:56:03.492Z,59.21
2023-02-22T07:58:33.233Z,58.49
2023-02-22T08:01:04.659Z,58.21
2023-02-22T08:03:36.754Z,58.52
2023-02-22T08:06:08.052Z,58.44
2023-02-22T08:08:36.292Z,57.68
2023-02-22T08:11:05.073Z,57.86
2023-02-22T08:13:33.407Z,57.97
2023-02-22T08:16:01.575Z,57.92
2023-02-22T08:18:29.703Z,58.08
2023-02-22T08:20:57.973Z,57.86
2023-02-22T08:23:27.110Z,57.55
2023-02-22T08:25:56.000Z,57.50
2023-02-22T08:28:25.013Z,57.57
2023-02-22T08:30:53.813Z,57.45
2023-02-22T08:33:22.284Z,57.12
2023-02-22T08:35:51.808Z,56.83
2023-02-22T08:38:29.813Z,56.73
2023-02-22T08:40:58.460Z,56.43
2023-02-22T08:43:26.797Z,55.96
2023-02-22T08:45:57.301Z,56.47
2023-02-22T08:48:25.946Z,55.77
2023-02-22T08:50:55.011Z,55.66
2023-02-22T08:53:23.241Z,55.47
2023-02-22T08:55:51.405Z,55.34
2023-02-22T08:58:19.596Z,54.93
2023-02-22T09:00:47.889Z,54.58
2023-02-22T09:03:16.179Z,54.46
2023-02-22T09:05:45.079Z,54.00
2023-02-22T09:08:15.207Z,53.75
2023-02-22T09:10:45.387Z,52.97
2023-02-22T09:13:13.971Z,53.15
2023-02-22T09:15:42.504Z,53.25
2023-02-22T09:18:14.591Z,53.44
2023-02-22T09:20:42.901Z,52.77
2023-02-22T09:23:11.131Z,52.90
2023-02-22T09:25:41.101Z,52.91
2023-02-22T09:28:09.505Z,52.65
2023-02-22T09:30:38.075Z,52.69
2023-02-22T09:33:12.173Z,53.03
2023-02-22T09:35:42.832Z,53.17
2023-02-22T09:38:11.681Z,52.74
2023-02-22T09:40:50.948Z,53.06
2023-02-22T09:43:55.049Z,52.75
2023-02-22T09:46:29.953Z,53.09
2023-02-22T09:49:28.163Z,52.94
2023-02-22T09:52:06.796Z,53.13
2023-02-22T09:54:45.525Z,52.42
2023-02-22T09:57:21.586Z,52.31
2023-02-22T10:00:29.496Z,52.70
2023-02-22T10:03:16.527Z,52.24
2023-02-22T10:05:57.032Z,52.41
2023-02-22T10:08:36.032Z,51.93
2023-02-22T10:11:31.842Z,50.60
2023-02-22T10:14:27.955Z,49.33
2023-02-22T10:17:20.127Z,50.12
2023-02-22T10:20:29.465Z,49.66
2023-02-22T10:23:17.427Z,50.31
2023-02-22T10:25:52.406Z,50.73
2023-02-22T10:28:40.553Z,50.91
2023-02-22T10:31:17.318Z,50.53
2023-02-22T10:33:57.047Z,50.62
2023-02-22T10:36:26.956Z,50.62
2023-02-22T10:39:07.809Z,50.94
2023-02-22T10:41:42.404Z,51.00
2023-02-22T10:44:10.648Z,50.69
2023-02-22T10:46:42.001Z,51.14
2023-02-22T10:49:17.105Z,51.21
2023-02-22T10:51:47.048Z,50.87
2023-02-22T10:54:15.176Z,51.13
2023-02-22T10:56:57.339Z,51.45
2023-02-22T10:59:40.840Z,51.59
2023-02-22T11:02:21.724Z,51.33
2023-02-22T11:04:56.460Z,51.07
2023-02-22T11:07:36.998Z,51.06
2023-02-22T11:10:09.497Z,51.12
2023-02-22T11:12:47.803Z,50.90
2023-02-22T11:15:18.970Z,50.69
2023-02-22T11:17:52.586Z,51.29
2023-02-22T11:20:28.204Z,51.29
2023-02-22T11:23:01.160Z,50.72
2023-02-22T11:25:40.282Z,50.50
2023-02-22T11:28:20.355Z,50.13
2023-02-22T11:30:52.078Z,50.13
2023-02-22T11:33:24.562Z,49.79
2023-02-22T11:35:55.039Z,49.27
2023-02-22T11:38:32.631Z,48.85
2023-02-22T11:41:26.491Z,48.15
2023-02-22T11:43:54.625Z,49.07
2023-02-22T11:46:27.562Z,49.10
2023-02-22T11:49:13.000Z,48.73
2023-02-22T11:51:56.814Z,48.57
2023-02-22T11:54:55.177Z,48.31
2023-02-22T11:57:50.732Z,48.65
2023-02-22T12:00:54.036Z,47.83
2023-02-22T12:03:40.460Z,47.83
2023-02-22T12:06:28.178Z,48.01
2023-02-22T12:09:08.317Z,48.30
2023-02-22T12:11:55.247Z,48.10
2023-02-22T12:14:44.207Z,47.51
2023-02-22T12:18:00.562Z,48.11
2023-02-22T12:20:40.436Z,48.03
2023-02-22T12:23:44.866Z,47.79
2023-02-22T12:26:36.397Z,47.73
2023-02-22T12:29:29.550Z,47.65
2023-02-22T12:32:07.860Z,46.99
2023-02-22T12:35:09.052Z,46.82
2023-02-22T12:37:51.304Z,46.97
2023-02-22T12:40:57.271Z,46.77
2023-02-22T12:43:51.853Z,46.72
2023-02-22T12:46:33.360Z,47.03
2023-02-22T12:50:13.790Z,47.59
2023-02-22T12:53:20.188Z,47.29
2023-02-22T12:55:56.587Z,47.05
2023-02-22T12:58:38.014Z,47.19
2023-02-22T13:01:20.416Z,47.50
2023-02-22T13:03:49.406Z,47.67
2023-02-22T13:06:45.211Z,47.66
2023-02-22T13:09:40.686Z,47.42
2023-02-22T13:12:30.057Z,47.59
2023-02-22T13:15:17.201Z,47.77
2023-02-22T13:18:42.250Z,47.80
2023-02-22T13:21:34.074Z,47.76
2023-02-22T13:24:38.401Z,47.70
2023-02-22T13:27:26.070Z,47.89
2023-02-22T13:30:01.783Z,47.75
2023-02-22T13:32:45.249Z,47.58
2023-02-22T13:35:42.335Z,47.52
2023-02-22T13:38:35.810Z,47.56
2023-02-22T13:41:43.027Z,47.93
2023-02-22T13:45:20.902Z,47.89
2023-02-22T13:48:19.975Z,47.89
2023-02-22T13:51:13.662Z,48.10
2023-02-22T13:53:47.805Z,47.87
2023-02-22T13:56:18.141Z,47.70
2023-02-22T13:58:59.457Z,47.97
2023-02-22T14:01:48.954Z,47.85
2023-02-22T14:04:44.238Z,48.07
2023-02-22T14:07:25.946Z,48.02
2023-02-22T14:09:57.568Z,47.70
2023-02-22T14:12:33.481Z,47.55
2023-02-22T14:15:26.790Z,47.89
2023-02-22T14:18:07.379Z,47.81
2023-02-22T14:20:40.444Z,47.82
2023-02-22T14:23:30.062Z,47.93
2023-02-22T14:26:16.469Z,48.28
2023-02-22T14:28:52.928Z,48.49
2023-02-22T14:31:47.458Z,48.11
2023-02-22T14:34:16.361Z,48.39
2023-02-22T14:37:09.207Z,48.70
2023-02-22T14:39:54.736Z,48.86
2023-02-22T14:42:34.980Z,48.63
2023-02-22T14:45:19.976Z,48.75
2023-02-22T14:48:25.102Z,48.87
2023-02-22T14:51:21.616Z,48.99
2023-02-22T14:54:34.944Z,49.14
2023-02-22T14:57:39.044Z,49.12
2023-02-22T15:00:22.832Z,49.24
2023-02-22T15:02:57.302Z,49.57
2023-02-22T15:05:30.430Z,49.42
2023-02-22T15:08:05.494Z,49.30
2023-02-22T15:10:36.513Z,49.28
2023-02-22T15:13:16.229Z,49.62
2023-02-22T15:15:55.394Z,49.36
2023-02-22T15:18:30.136Z,49.64
2023-02-22T15:21:07.046Z,49.56
2023-02-22T15:23:57.070Z,49.88
2023-02-22T15:26:31.246Z,49.95
2023-02-22T15:29:00.130Z,50.00
2023-02-22T15:31:35.896Z,50.02
2023-02-22T15:34:12.838Z,50.05
2023-02-22T15:36:46.761Z,50.31
2023-02-22T15:39:34.497Z,50.16
2023-02-22T15:42:08.330Z,50.26
2023-02-22T15:44:42.648Z,49.99
2023-02-22T15:47:29.508Z,50.07
2023-02-22T15:50:29.466Z,50.16
2023-02-22T15:53:24.154Z,50.33
2023-02-22T15:55:59.808Z,50.52
2023-02-22T15:58:30.174Z,50.64
2023-02-22T16:01:16.734Z,50.57
2023-02-22T16:03:53.451Z,50.95
2023-02-22T16:06:33.556Z,50.93
2023-02-22T16:09:10.782Z,51.25
2023-02-22T16:11:44.213Z,51.52
2023-02-22T16:14:34.630Z,51.57
2023-02-22T16:17:35.378Z,51.69
2023-02-22T16:20:13.331Z,51.82
2023-02-22T16:22:49.237Z,51.93
2023-02-22T16:25:24.943Z,51.96
2023-02-22T16:27:59.942Z,52.27
2023-02-22T16:30:34.592Z,52.24
2023-02-22T16:33:13.481Z,52.38
2023-02-22T16:35:51.723Z,52.42
2023-02-22T16:38:21.259Z,52.68
2023-02-22T16:40:55.212Z,52.72
2023-02-22T16:43:29.547Z,52.71
2023-02-22T16:45:57.980Z,53.00
2023-02-22T16:48:29.972Z,52.90
2023-02-22T16:51:17.015Z,53.17
2023-02-22T16:53:45.816Z,52.99
2023-02-22T16:56:18.315Z,53.12
2023-02-22T16:58:53.513Z,53.25
2023-02-22T17:01:23.460Z,53.32
2023-02-22T17:03:53.971Z,53.41
2023-02-22T17:06:22.159Z,53.52
2023-02-22T17:08:52.092Z,53.43
2023-02-22T17:11:21.072Z,53.63
2023-02-22T17:13:51.768Z,53.79
2023-02-22T17:16:20.349Z,54.03
2023-02-22T17:18:49.788Z,53.99
2023-02-22T17:21:17.981Z,54.16
2023-02-22T17:23:47.109Z,54.23
2023-02-22T17:26:17.580Z,54.37
2023-02-22T17:28:46.121Z,54.45
2023-02-22T17:31:23.891Z,54.46
2023-02-22T17:33:52.555Z,54.65
2023-02-22T17:36:21.069Z,54.54
2023-02-22T17:38:49.939Z,54.76
2023-02-22T17:41:18.227Z,54.82
2023-02-22T17:43:46.393Z,54.95
2023-02-22T17:46:15.067Z,55.30
2023-02-22T17:48:43.295Z,55.28
2023-02-22T17:51:12.525Z,55.53
2023-02-22T17:53:41.183Z,55.68
2023-02-22T17:56:14.215Z,55.98
2023-02-22T17:58:42.690Z,55.93
2023-02-22T18:01:28.280Z,56.11
2023-02-22T18:04:00.507Z,56.21
2023-02-22T18:06:32.685Z,56.49
2023-02-22T18:09:01.853Z,56.44
2023-02-22T18:11:32.683Z,56.62
2023-02-22T18:14:00.963Z,56.67
2023-02-22T18:16:29.105Z,56.77
2023-02-22T18:18:57.644Z,56.88
2023-02-22T18:21:26.829Z,57.13
2023-02-22T18:23:55.282Z,57.32
2023-02-22T18:26:26.102Z,57.38
2023-02-22T18:28:54.432Z,57.76
2023-02-22T18:31:23.617Z,57.62
2023-02-22T18:33:52.887Z,57.94
2023-02-22T18:36:23.304Z,58.03
2023-02-22T18:38:54.463Z,58.31
2023-02-22T18:41:25.403Z,58.35
2023-02-22T18:43:55.576Z,58.68
2023-02-22T18:46:25.295Z,58.80
2023-02-22T18:48:56.448Z,58.98
2023-02-22T18:51:26.195Z,58.97
2023-02-22T18:54:00.410Z,59.12
2023-02-22T18:56:30.313Z,59.34
2023-02-22T18:59:02.476Z,59.39
2023-02-22T19:01:38.677Z,59.24
2023-02-22T19:04:12.721Z,59.58
2023-02-22T19:06:42.994Z,59.56
2023-02-22T19:09:11.100Z,59.63
2023-02-22T19:11:44.745Z,59.68
2023-02-22T19:14:13.860Z,59.96
2023-02-22T19:16:46.385Z,60.56
2023-02-22T19:19:16.797Z,60.16
2023-02-22T19:21:44.883Z,60.50
2023-02-22T19:24:13.332Z,60.87
2023-02-22T19:26:50.503Z,60.81
2023-02-22T19:29:22.094Z,60.80
2023-02-22T19:31:51.761Z,60.78
2023-02-22T19:34:21.990Z,61.24
2023-02-22T19:36:50.562Z,61.07
2023-02-22T19:39:20.932Z,61.11
2023-02-22T19:41:49.075Z,61.24
2023-02-22T19:44:17.258Z,61.08
2023-02-22T19:46:47.328Z,61.37
2023-02-22T19:49:16.328Z,61.26
2023-02-22T19:51:44.472Z,61.53
2023-02-22T19:54:21.418Z,61.42
2023-02-22T19:56:51.310Z,61.51
2023-02-22T19:59:23.094Z,61.74
2023-02-22T20:01:55.912Z,61.87
2023-02-22T20:04:24.759Z,62.26
2023-02-22T20:06:54.821Z,61.96
2023-02-22T20:09:40.283Z,62.09
2023-02-22T20:12:09.332Z,62.13
2023-02-22T20:14:38.820Z,62.66
2023-02-22T20:17:07.840Z,62.67
2023-02-22T20:19:37.682Z,62.85
2023-02-22T20:22:06.556Z,63.09
2023-02-22T20:24:34.654Z,63.11
2023-02-22T20:27:02.773Z,63.09
2023-02-22T20:29:30.886Z,63.55
2023-02-22T20:32:02.342Z,63.55
2023-02-22T20:34:32.494Z,63.60
2023-02-22T20:37:01.691Z,64.06
2023-02-22T20:39:30.061Z,63.66
2023-02-22T20:42:00.532Z,63.51
2023-02-22T20:44:28.908Z,63.63
2023-02-22T20:46:57.127Z,63.96
2023-02-22T20:49:27.123Z,63.69
2023-02-22T20:51:55.228Z,63.74
2023-02-22T20:54:23.341Z,63.66
2023-02-22T20:56:53.003Z,64.11
2023-02-22T20:59:21.536Z,64.35
2023-02-22T21:01:50.334Z,64.12
2023-02-22T21:04:19.072Z,64.60
2023-02-22T21:06:47.182Z,64.59
2023-02-22T21:09:19.082Z,64.58
2023-02-22T21:11:47.820Z,64.90
2023-02-22T21:14:18.933Z,64.77
2023-02-22T21:16:49.434Z,65.00
2023-02-22T21:19:28.143Z,65.16
2023-02-22T21:21:59.725Z,64.92
2023-02-22T21:24:29.770Z,65.20
2023-02-22T21:26:59.156Z,65.33
2023-02-22T21:29:29.484Z,65.07
2023-02-22T21:31:58.158Z,65.20
2023-02-22T21:34:26.567Z,65.37
2023-02-22T21:36:54.791Z,65.35
2023-02-22T21:39:28.121Z,65.34
2023-02-22T21:42:00.544Z,65.45
2023-02-22T21:44:29.969Z,65.40
2023-02-22T21:46:58.267Z,65.46
2023-02-22T21:49:26.668Z,65.70
2023-02-22T21:51:54.865Z,65.86
2023-02-22T21:54:23.428Z,65.73
2023-02-22T21:56:52.021Z,66.01
2023-02-22T21:59:23.880Z,65.81
2023-02-22T22:01:56.709Z,66.20
2023-02-22T22:04:31.413Z,66.43
2023-02-22T22:07:01.462Z,66.27
2023-02-22T22:09:32.878Z,66.54
2023-02-22T22:12:05.260Z,66.38
2023-02-22T22:14:34.810Z,66.54
2023-02-22T22:17:06.972Z,66.51
2023-02-22T22:19:40.783Z,66.75
2023-02-22T22:22:09.332Z,66.54
2023-02-22T22:24:38.017Z,66.53
2023-02-22T22:27:09.723Z,66.72
2023-02-22T22:29:37.849Z,66.46
2023-02-22T22:32:06.581Z,66.63
2023-02-22T22:34:34.985Z,66.63
2023-02-22T22:37:03.162Z,66.57
2023-02-22T22:39:31.556Z,66.61
2023-02-22T22:41:59.713Z,66.88
2023-02-22T22:44:32.746Z,66.92
2023-02-22T22:47:01.249Z,66.99
2023-02-22T22:49:31.345Z,67.17
2023-02-22T22:51:59.759Z,67.32
2023-02-22T22:54:28.850Z,67.21
2023-02-22T22:56:57.011Z,67.24
2023-02-22T22:59:25.149Z,67.62
2023-02-22T23:01:56.710Z,67.71
2023-02-22T23:04:25.535Z,67.54
2023-02-22T23:06:54.854Z,67.57
2023-02-22T23:09:30.449Z,67.61
2023-02-22T23:12:08.828Z,67.71
2023-02-22T23:14:44.020Z,67.79
2023-02-22T23:17:16.353Z,67.72
2023-02-22T23:19:45.401Z,67.91
2023-02-22T23:22:16.321Z,67.81
2023-02-22T23:24:45.379Z,68.06
2023-02-22T23:27:13.700Z,68.24
2023-02-22T23:29:46.516Z,68.31
2023-02-22T23:32:14.960Z,68.22
2023-02-22T23:34:43.167Z,68.23
2023-02-22T23:37:13.596Z,68.06
2023-02-22T23:39:42.363Z,68.08
2023-02-22T23:42:10.521Z,68.03
2023-02-22T23:44:40.301Z,68.35
2023-02-22T23:47:09.661Z,68.43
2023-02-22T23:49:38.991Z,68.41
2023-02-22T23:52:09.430Z,68.42
2023-02-22T23:54:43.956Z,68.34
2023-02-22T23:57:12.330Z,68.42
2023-02-22T23:59:40.604Z,68.34
